Wetterdaten: Jahr 2012
Datum Temp Feuchte Luftdruck Regen Wind Richtung Sonnenschein UV Solar Windben
01.01.2012 10,0 C 98 % 1007,9 hPa 10,0 l/m 9,8 km/h S-SW 0,00 h 0,0 UV-I 24 W/m 21,3 km/h
02.01.2012 5,3 C 95 % 1009,7 hPa 11,2 l/m 7,1 km/h S-SW 0,00 h 0,0 UV-I 41 W/m 24,5 km/h
03.01.2012 5,5 C 88 % 1006,4 hPa 6,0 l/m 18,5 km/h S 0,58 h 0,0 UV-I 35 W/m 37,4 km/h
04.01.2012 3,6 C 87 % 1008,7 hPa 5,0 l/m 21,0 km/h S-SW 0,00 h 0,0 UV-I 28 W/m 35,8 km/h
05.01.2012 2,8 C 91 % 990,5 hPa 18,8 l/m 19,0 km/h S-SW 0,17 h 0,5 UV-I 31 W/m 40,2 km/h
06.01.2012 3,2 C 97 % 1015,6 hPa 4,0 l/m 15,2 km/h NW 0,08 h 0,5 UV-I 47 W/m 27,8 km/h
07.01.2012 4,2 C 96 % 1012,9 hPa 11,2 l/m 15,4 km/h S-SW 0,00 h 0,5 UV-I 37 W/m 31,8 km/h
08.01.2012 3,4 C 97 % 1019,2 hPa 9,0 l/m 7,2 km/h NW 0,00 h 0,5 UV-I 23 W/m 21,0 km/h
09.01.2012 5,3 C 98 % 1024,8 hPa 6,2 l/m 8,4 km/h W 0,00 h 0,0 UV-I 18 W/m 21,0 km/h
10.01.2012 4,9 C 92 % 1031,5 hPa 0,6 l/m 1,0 km/h N-NW 0,00 h 0,5 UV-I 39 W/m 13,7 km/h
11.01.2012 6,3 C 96 % 1030,1 hPa 2,8 l/m 4,0 km/h SW 0,00 h 0,5 UV-I 23 W/m 25,0 km/h
12.01.2012 4,5 C 96 % 1019,5 hPa 7,6 l/m 11,2 km/h SW 0,67 h 0,6 UV-I 61 W/m 27,8 km/h
13.01.2012 2,5 C 91 % 1023,1 hPa 2,2 l/m 5,9 km/h N-NW 0,25 h 0,6 UV-I 48 W/m 22,5 km/h
14.01.2012 1,6 C 95 % 1025,8 hPa 0,2 l/m 2,8 km/h NW 0,08 h 0,5 UV-I 42 W/m 6,0 km/h
15.01.2012 -1,5 C 91 % 1026,7 hPa 0,0 l/m 0,7 km/h N-NO 2,67 h 0,6 UV-I 107 W/m 2,0 km/h
16.01.2012 -2,6 C 89 % 1028,6 hPa 0,2 l/m 0,2 km/h O 5,33 h 0,7 UV-I 163 W/m 1,2 km/h
17.01.2012 -3,0 C 85 % 1030,1 hPa 0,0 l/m 0,2 km/h O 4,32 h 0,7 UV-I 130 W/m 1,2 km/h
18.01.2012 1,4 C 88 % 1025,0 hPa 6,0 l/m 3,5 km/h S-SW 4,50 h 0,7 UV-I 126 W/m 12,5 km/h
19.01.2012 3,6 C 97 % 1013,2 hPa 21,0 l/m 4,6 km/h W 0,00 h 0,0 UV-I 21 W/m 14,9 km/h
20.01.2012 1,3 C 95 % 1012,2 hPa 4,4 l/m 14,0 km/h W 0,42 h 0,5 UV-I 56 W/m 29,3 km/h
21.01.2012 4,1 C 95 % 1002,8 hPa 14,4 l/m 9,9 km/h W 0,00 h 0,0 UV-I 17 W/m 26,5 km/h
22.01.2012 3,3 C 95 % 1004,7 hPa 10,6 l/m 15,5 km/h SW 0,00 h 0,0 UV-I 24 W/m 34,6 km/h
23.01.2012 1,8 C 97 % 1012,6 hPa 4,2 l/m 7,8 km/h W 0,00 h 0,6 UV-I 44 W/m 22,9 km/h
24.01.2012 1,4 C 98 % 1020,5 hPa 0,4 l/m 0,8 km/h NW 0,00 h 0,6 UV-I 38 W/m 6,0 km/h
25.01.2012 -0,9 C 96 % 1022,6 hPa 0,0 l/m 10,5 km/h S-SO 2,00 h 0,6 UV-I 108 W/m 18,1 km/h
26.01.2012 -0,3 C 85 % 1019,0 hPa 0,0 l/m 21,9 km/h S-SO 5,50 h 0,8 UV-I 169 W/m 31,4 km/h
27.01.2012 -0,1 C 97 % 1024,0 hPa 2,2 l/m 1,5 km/h S-SO 0,67 h 0,5 UV-I 65 W/m 5,2 km/h
28.01.2012 -1,0 C 95 % 1029,0 hPa 0,0 l/m 0,4 km/h S-SO 0,00 h 0,5 UV-I 40 W/m 4,0 km/h
29.01.2012 -4,2 C 93 % 1029,4 hPa 0,0 l/m 3,0 km/h N-NO 0,00 h 0,0 UV-I 40 W/m 11,3 km/h
30.01.2012 -4,8 C 84 % 1027,7 hPa 0,0 l/m 1,4 km/h O-SO 2,83 h 0,7 UV-I 119 W/m 5,6 km/h
31.01.2012 -7,6 C 80 % 1028,8 hPa 0,0 l/m 4,9 km/h O-NO 6,42 h 0,8 UV-I 179 W/m 17,7 km/h
01.02.2012 -8,8 C 64 % 1033,4 hPa 0,0 l/m 8,4 km/h NO 6,83 h 0,9 UV-I 196 W/m 24,5 km/h
02.02.2012 -10,9 C 71 % 1035,7 hPa 0,0 l/m 1,7 km/h NO 7,00 h 0,9 UV-I 197 W/m 7,3 km/h
03.02.2012 -9,9 C 86 % 1037,3 hPa 0,0 l/m 0,1 km/h NW 5,42 h 0,8 UV-I 168 W/m 0,4 km/h
04.02.2012 -11,7 C 85 % 1038,6 hPa 0,0 l/m 0,0 km/h N-NO 2,58 h 0,7 UV-I 128 W/m 0,8 km/h
05.02.2012 -10,3 C 77 % 1035,0 hPa 0,0 l/m 2,2 km/h SO 7,08 h 0,8 UV-I 200 W/m 8,0 km/h
06.02.2012 -12,8 C 78 % 1036,9 hPa 0,0 l/m 1,0 km/h SO 6,92 h 0,7 UV-I 203 W/m 3,6 km/h
07.02.2012 -10,4 C 82 % 1040,5 hPa 0,0 l/m 4,7 km/h N-NO 1,92 h 0,7 UV-I 124 W/m 15,3 km/h
08.02.2012 -7,1 C 81 % 1039,4 hPa 0,0 l/m 2,2 km/h NO 5,17 h 0,8 UV-I 189 W/m 8,1 km/h
09.02.2012 -4,8 C 86 % 1036,5 hPa 0,0 l/m 7,3 km/h N 0,25 h 0,6 UV-I 53 W/m 19,7 km/h
10.02.2012 -8,8 C 78 % 1039,7 hPa 0,0 l/m 0,5 km/h N-NO 7,00 h 0,9 UV-I 220 W/m 6,4 km/h
11.02.2012 -9,6 C 85 % 1035,9 hPa 0,0 l/m 0,7 km/h NO 4,92 h 0,9 UV-I 182 W/m 6,4 km/h
12.02.2012 -6,7 C 88 % 1030,6 hPa 0,0 l/m 2,0 km/h W 2,00 h 0,8 UV-I 117 W/m 7,6 km/h
13.02.2012 -1,4 C 97 % 1019,0 hPa 1,2 l/m 0,3 km/h W 0,00 h 0,0 UV-I 18 W/m 3,2 km/h
14.02.2012 0,5 C 99 % 1012,2 hPa 3,2 l/m 7,7 km/h W 0,00 h 0,5 UV-I 49 W/m 17,7 km/h
15.02.2012 1,3 C 94 % 1010,3 hPa 5,2 l/m 13,2 km/h N-NW 0,00 h 0,6 UV-I 53 W/m 28,6 km/h
16.02.2012 2,0 C 98 % 1021,9 hPa 2,2 l/m 4,2 km/h W 0,00 h 0,7 UV-I 72 W/m 16,5 km/h
17.02.2012 3,5 C 99 % 1020,0 hPa 3,8 l/m 1,3 km/h W 0,33 h 0,7 UV-I 49 W/m 8,8 km/h
18.02.2012 5,0 C 95 % 1011,3 hPa 0,4 l/m 10,3 km/h S-SW 0,00 h 0,6 UV-I 52 W/m 18,5 km/h
19.02.2012 0,1 C 97 % 1019,1 hPa 6,2 l/m 4,3 km/h W 0,00 h 0,6 UV-I 56 W/m 13,3 km/h
20.02.2012 0,0 C 87 % 1032,4 hPa 0,0 l/m 1,9 km/h S 2,33 h 1,0 UV-I 154 W/m 12,1 km/h
21.02.2012 3,3 C 86 % 1029,0 hPa 0,0 l/m 3,2 km/h S-SW 0,00 h 0,8 UV-I 90 W/m 13,7 km/h
22.02.2012 5,3 C 76 % 1023,8 hPa 0,0 l/m 6,0 km/h S-SW 3,92 h 1,2 UV-I 194 W/m 16,5 km/h
23.02.2012 6,4 C 99 % 1021,0 hPa 9,2 l/m 7,5 km/h W 0,00 h 0,6 UV-I 27 W/m 25,4 km/h
24.02.2012 7,5 C 100 % 1022,1 hPa 7,2 l/m 11,7 km/h W-SW 0,00 h 0,5 UV-I 27 W/m 29,0 km/h
25.02.2012 3,8 C 95 % 1021,6 hPa 0,0 l/m 1,5 km/h NW 0,00 h 0,8 UV-I 103 W/m 6,8 km/h
26.02.2012 1,7 C 96 % 1024,8 hPa 5,2 l/m 1,8 km/h NW 1,83 h 0,9 UV-I 119 W/m 10,5 km/h
27.02.2012 4,1 C 96 % 1023,8 hPa 1,6 l/m 1,3 km/h S-SW 0,00 h 0,7 UV-I 87 W/m 8,1 km/h
28.02.2012 6,8 C 100 % 1021,9 hPa 4,2 l/m 5,3 km/h W 0,00 h 0,5 UV-I 31 W/m 21,7 km/h
29.02.2012 8,6 C 100 % 1024,8 hPa 1,0 l/m 1,0 km/h W 0,00 h 0,7 UV-I 62 W/m 5,6 km/h
01.03.2012 7,8 C 100 % 1025,3 hPa 0,2 l/m 1,4 km/h W-SW 0,00 h 0,6 UV-I 80 W/m 4,4 km/h
02.03.2012 7,1 C 91 % 1026,2 hPa 0,2 l/m 1,8 km/h O-SO 5,00 h 1,2 UV-I 217 W/m 4,0 km/h
03.03.2012 5,9 C 93 % 1023,2 hPa 0,2 l/m 3,0 km/h S-SO 4,67 h 1,1 UV-I 211 W/m 9,6 km/h
04.03.2012 6,4 C 95 % 1018,3 hPa 0,0 l/m 0,9 km/h SO 0,17 h 0,8 UV-I 76 W/m 7,6 km/h
05.03.2012 3,8 C 81 % 1017,8 hPa 0,2 l/m 6,1 km/h S-SO 0,08 h 0,7 UV-I 78 W/m 14,5 km/h
06.03.2012 3,7 C 77 % 1026,3 hPa 0,0 l/m 1,8 km/h SO 7,92 h 1,2 UV-I 295 W/m 6,1 km/h
07.03.2012 1,9 C 87 % 1017,0 hPa 6,0 l/m 3,1 km/h S 3,67 h 0,9 UV-I 151 W/m 9,2 km/h
08.03.2012 3,7 C 87 % 1027,9 hPa 5,8 l/m 3,7 km/h N-NW 4,17 h 1,1 UV-I 219 W/m 9,6 km/h
09.03.2012 5,8 C 81 % 1035,4 hPa 0,0 l/m 4,3 km/h S-SW 6,08 h 1,4 UV-I 279 W/m 13,3 km/h
10.03.2012 7,0 C 97 % 1031,9 hPa 1,6 l/m 7,0 km/h W 0,00 h 0,5 UV-I 36 W/m 19,7 km/h
11.03.2012 7,2 C 91 % 1031,4 hPa 0,2 l/m 4,5 km/h N-NW 1,33 h 1,0 UV-I 115 W/m 16,9 km/h
12.03.2012 5,8 C 99 % 1030,8 hPa 0,2 l/m 5,9 km/h N-NW 0,00 h 0,6 UV-I 49 W/m 17,7 km/h
13.03.2012 5,7 C 91 % 1032,3 hPa 0,0 l/m 2,9 km/h N-NW 0,00 h 0,7 UV-I 62 W/m 15,3 km/h
14.03.2012 4,6 C 87 % 1031,5 hPa 0,0 l/m 0,1 km/h N-NW 0,00 h 0,7 UV-I 70 W/m 0,8 km/h
15.03.2012 6,5 C 82 % 1026,5 hPa 0,0 l/m 2,3 km/h S 9,17 h 1,6 UV-I 336 W/m 4,8 km/h
16.03.2012 9,4 C 75 % 1019,4 hPa 0,0 l/m 0,2 km/h S-SW 9,33 h 1,6 UV-I 340 W/m 1,6 km/h
17.03.2012 8,8 C 87 % 1015,2 hPa 0,0 l/m 0,0 km/h NW 4,17 h 1,5 UV-I 203 W/m 0,4 km/h
18.03.2012 6,2 C 88 % 1016,1 hPa 1,8 l/m 4,3 km/h S 0,17 h 0,8 UV-I 82 W/m 16,5 km/h
19.03.2012 3,4 C 78 % 1030,5 hPa 0,2 l/m 1,2 km/h NW 8,42 h 1,6 UV-I 353 W/m 4,8 km/h
20.03.2012 7,4 C 74 % 1034,7 hPa 0,0 l/m 0,9 km/h SW 7,75 h 1,8 UV-I 327 W/m 4,4 km/h
21.03.2012 9,7 C 83 % 1034,9 hPa 0,0 l/m 0,4 km/h N-NW 9,17 h 1,7 UV-I 332 W/m 2,4 km/h
22.03.2012 9,8 C 87 % 1030,9 hPa 0,0 l/m 2,3 km/h SO 9,42 h 2,0 UV-I 359 W/m 8,4 km/h
23.03.2012 9,9 C 84 % 1026,9 hPa 0,2 l/m 0,2 km/h SO 9,58 h 2,0 UV-I 353 W/m 2,0 km/h
24.03.2012 10,9 C 79 % 1026,8 hPa 0,0 l/m 0,3 km/h SO 8,92 h 2,0 UV-I 349 W/m 1,6 km/h
25.03.2012 8,5 C 72 % 1031,5 hPa 0,0 l/m 1,7 km/h N 9,58 h 2,0 UV-I 388 W/m 4,4 km/h
26.03.2012 8,1 C 72 % 1034,2 hPa 0,0 l/m 0,4 km/h N-NO 9,50 h 2,0 UV-I 384 W/m 2,4 km/h
27.03.2012 8,6 C 79 % 1032,8 hPa 0,0 l/m 1,4 km/h N-NW 8,42 h 2,0 UV-I 321 W/m 3,6 km/h
28.03.2012 11,6 C 68 % 1027,5 hPa 0,2 l/m 2,6 km/h NW 8,50 h 2,3 UV-I 357 W/m 15,3 km/h
29.03.2012 6,8 C 85 % 1018,8 hPa 0,2 l/m 15,1 km/h N-NW 0,33 h 0,9 UV-I 85 W/m 34,2 km/h
30.03.2012 6,8 C 93 % 1015,5 hPa 6,4 l/m 8,6 km/h N-NW 0,00 h 0,7 UV-I 67 W/m 25,4 km/h
31.03.2012 3,6 C 82 % 1012,2 hPa 1,6 l/m 10,4 km/h N-NW 1,92 h 1,2 UV-I 176 W/m 20,1 km/h
01.04.2012 3,7 C 79 % 1015,3 hPa 0,0 l/m 5,0 km/h W-NW 2,17 h 1,6 UV-I 192 W/m 16,9 km/h
02.04.2012 4,3 C 91 % 1009,4 hPa 0,2 l/m 0,3 km/h W 0,17 h 0,9 UV-I 100 W/m 4,8 km/h
03.04.2012 8,4 C 79 % 1003,0 hPa 0,2 l/m 0,4 km/h N-NO 4,42 h 1,6 UV-I 248 W/m 4,4 km/h
04.04.2012 5,5 C 91 % 1009,5 hPa 1,6 l/m 2,0 km/h N-NO 1,33 h 1,4 UV-I 162 W/m 9,7 km/h
05.04.2012 3,7 C 93 % 1017,1 hPa 0,0 l/m 3,5 km/h N-NO 0,00 h 0,9 UV-I 92 W/m 10,1 km/h
06.04.2012 4,4 C 76 % 1009,9 hPa 0,0 l/m 1,8 km/h W-NW 2,15 h 1,0 UV-I 161 W/m 7,7 km/h
07.04.2012 2,2 C 69 % 1007,2 hPa 2,2 l/m 0,7 km/h N-NW 4,05 h 1,4 UV-I 228 W/m 7,2 km/h
08.04.2012 0,4 C 74 % 1013,5 hPa 0,0 l/m 0,1 km/h NW 6,93 h 1,7 UV-I 305 W/m 1,6 km/h
09.04.2012 4,9 C 94 % 1002,1 hPa 7,4 l/m 11,4 km/h S 0,00 h 0,9 UV-I 100 W/m 21,3 km/h
10.04.2012 10,1 C 83 % 994,7 hPa 0,6 l/m 16,8 km/h S 1,25 h 1,3 UV-I 146 W/m 26,1 km/h
11.04.2012 6,8 C 82 % 999,1 hPa 0,8 l/m 1,1 km/h NW 4,75 h 1,7 UV-I 252 W/m 6,0 km/h
12.04.2012 5,7 C 87 % 1001,7 hPa 1,8 l/m 1,0 km/h S 4,33 h 1,7 UV-I 288 W/m 8,4 km/h
13.04.2012 4,9 C 87 % 1004,7 hPa 0,2 l/m 1,1 km/h W 4,17 h 1,6 UV-I 252 W/m 4,0 km/h
14.04.2012 6,9 C 81 % 1004,9 hPa 0,6 l/m 0,3 km/h N-NO 6,50 h 1,8 UV-I 300 W/m 2,0 km/h
15.04.2012 6,3 C 81 % 1011,3 hPa 0,0 l/m 8,8 km/h N 5,33 h 2,0 UV-I 264 W/m 20,1 km/h
16.04.2012 2,9 C 80 % 1018,8 hPa 0,4 l/m 3,3 km/h N-NW 3,83 h 1,7 UV-I 268 W/m 10,4 km/h
17.04.2012 4,8 C 65 % 1007,2 hPa 0,0 l/m 7,7 km/h S-SO 9,00 h 2,1 UV-I 361 W/m 14,1 km/h
18.04.2012 8,5 C 66 % 994,5 hPa 0,0 l/m 8,1 km/h S-SO 4,98 h 2,1 UV-I 317 W/m 13,3 km/h
19.04.2012 8,6 C 77 % 992,1 hPa 0,0 l/m 8,1 km/h S-SO 4,83 h 1,9 UV-I 291 W/m 12,9 km/h
20.04.2012 6,3 C 84 % 996,7 hPa 0,0 l/m 0,0 km/h S 5,08 h 1,4 UV-I 250 W/m 0,0 km/h
21.04.2012 5,6 C 86 % 999,5 hPa 2,4 l/m 3,5 km/h S 4,00 h 1,3 UV-I 200 W/m 7,7 km/h
22.04.2012 5,5 C 89 % 1005,7 hPa 4,0 l/m 9,8 km/h S-SW 3,17 h 1,5 UV-I 195 W/m 23,3 km/h
23.04.2012 7,1 C 80 % 1001,6 hPa 0,2 l/m 7,9 km/h S-SO 6,42 h 2,0 UV-I 333 W/m 14,5 km/h
24.04.2012 8,1 C 85 % 996,5 hPa 1,2 l/m 4,4 km/h S-SO 2,17 h 1,6 UV-I 212 W/m 10,9 km/h
25.04.2012 10,0 C 75 % 1001,4 hPa 0,4 l/m 9,2 km/h S-SO 4,17 h 2,1 UV-I 287 W/m 23,7 km/h
26.04.2012 11,0 C 76 % 1007,3 hPa 2,4 l/m 8,2 km/h S 1,17 h 1,7 UV-I 192 W/m 18,5 km/h
27.04.2012 12,5 C 72 % 1016,1 hPa 0,0 l/m 1,6 km/h S 4,50 h 2,5 UV-I 276 W/m 4,4 km/h
28.04.2012 19,3 C 61 % 1011,8 hPa 0,4 l/m 7,3 km/h N-NO 8,42 h 2,5 UV-I 356 W/m 16,5 km/h
29.04.2012 15,4 C 79 % 1007,2 hPa 0,0 l/m 2,0 km/h N-NW 2,25 h 1,5 UV-I 187 W/m 4,8 km/h
30.04.2012 17,0 C 65 % 1016,1 hPa 0,0 l/m 3,2 km/h N-NO 8,07 h 2,8 UV-I 395 W/m 14,9 km/h
01.05.2012 15,8 C 81 % 1015,8 hPa 1,0 l/m 0,3 km/h NO 7,58 h 2,9 UV-I 343 W/m 3,2 km/h
02.05.2012 15,8 C 85 % 1012,3 hPa 1,2 l/m 1,8 km/h N-NO 9,50 h 2,8 UV-I 428 W/m 4,4 km/h
03.05.2012 13,5 C 82 % 1009,7 hPa 0,2 l/m 0,8 km/h S-SW 3,83 h 2,5 UV-I 294 W/m 3,6 km/h
04.05.2012 14,8 C 70 % 1003,0 hPa 0,2 l/m 4,2 km/h S-SW 5,02 h 2,3 UV-I 300 W/m 8,4 km/h
05.05.2012 6,8 C 96 % 1005,9 hPa 3,0 l/m 2,0 km/h N-NO 0,00 h 0,7 UV-I 52 W/m 8,0 km/h
06.05.2012 6,6 C 96 % 1011,4 hPa 0,6 l/m 0,5 km/h N-NO 0,00 h 0,9 UV-I 88 W/m 4,8 km/h
07.05.2012 6,6 C 93 % 1018,1 hPa 0,6 l/m 0,1 km/h N-NW 1,17 h 1,1 UV-I 133 W/m 2,4 km/h
08.05.2012 13,5 C 73 % 1012,5 hPa 0,2 l/m 2,7 km/h S 8,50 h 2,5 UV-I 379 W/m 5,3 km/h
09.05.2012 15,7 C 88 % 1013,5 hPa 6,0 l/m 6,8 km/h S 3,42 h 1,9 UV-I 232 W/m 11,3 km/h
10.05.2012 19,1 C 82 % 1016,2 hPa 5,6 l/m 11,2 km/h S 2,33 h 2,0 UV-I 214 W/m 18,9 km/h
11.05.2012 15,0 C 87 % 1020,0 hPa 2,2 l/m 2,0 km/h S-SW 3,25 h 2,1 UV-I 200 W/m 16,9 km/h
12.05.2012 7,8 C 76 % 1031,8 hPa 1,0 l/m 3,3 km/h N-NW 2,42 h 2,0 UV-I 236 W/m 11,6 km/h
13.05.2012 5,2 C 80 % 1029,3 hPa 0,0 l/m 0,1 km/h N-NW 5,50 h 2,0 UV-I 293 W/m 1,2 km/h
14.05.2012 11,0 C 65 % 1016,4 hPa 0,0 l/m 5,9 km/h S 11,67 h 2,7 UV-I 368 W/m 14,5 km/h
15.05.2012 7,8 C 87 % 1008,6 hPa 5,0 l/m 3,0 km/h S 2,92 h 1,6 UV-I 209 W/m 8,8 km/h
16.05.2012 5,8 C 81 % 1020,5 hPa 5,6 l/m 1,3 km/h NW 3,25 h 1,9 UV-I 259 W/m 10,5 km/h
17.05.2012 8,8 C 68 % 1019,5 hPa 0,0 l/m 0,4 km/h SO 12,10 h 3,5 UV-I 490 W/m 4,4 km/h
18.05.2012 11,5 C 77 % 1010,7 hPa 0,2 l/m 3,4 km/h S-SO 5,08 h 2,6 UV-I 302 W/m 12,5 km/h
19.05.2012 15,5 C 82 % 1011,1 hPa 0,0 l/m 1,5 km/h S 7,67 h 2,5 UV-I 341 W/m 3,6 km/h
20.05.2012 17,3 C 81 % 1005,4 hPa 0,8 l/m 0,8 km/h N-NO 9,25 h 2,2 UV-I 359 W/m 4,0 km/h
21.05.2012 20,3 C 70 % 999,7 hPa 0,0 l/m 4,3 km/h N-NO 7,18 h 2,6 UV-I 335 W/m 10,1 km/h
22.05.2012 21,0 C 72 % 1008,2 hPa 0,0 l/m 3,5 km/h SO 12,18 h 3,4 UV-I 462 W/m 7,7 km/h
23.05.2012 20,9 C 79 % 1019,7 hPa 0,0 l/m 0,9 km/h N-NO 11,50 h 3,0 UV-I 440 W/m 4,0 km/h
24.05.2012 19,6 C 59 % 1025,4 hPa 0,0 l/m 2,2 km/h NO 12,58 h 3,4 UV-I 477 W/m 10,5 km/h
25.05.2012 17,4 C 48 % 1024,6 hPa 0,0 l/m 2,5 km/h NO 12,33 h 3,5 UV-I 487 W/m 11,7 km/h
26.05.2012 17,5 C 55 % 1021,8 hPa 0,0 l/m 1,8 km/h N-NO 12,92 h 3,3 UV-I 484 W/m 7,2 km/h
27.05.2012 17,6 C 62 % 1017,8 hPa 0,0 l/m 0,6 km/h N-NO 8,17 h 2,9 UV-I 387 W/m 3,6 km/h
28.05.2012 18,7 C 68 % 1012,7 hPa 0,0 l/m 1,4 km/h N-NW 10,08 h 2,6 UV-I 410 W/m 3,6 km/h
29.05.2012 14,2 C 79 % 1013,2 hPa 0,0 l/m 2,8 km/h NW 4,58 h 2,5 UV-I 282 W/m 7,6 km/h
30.05.2012 14,8 C 76 % 1017,3 hPa 0,0 l/m 0,9 km/h NW 6,92 h 2,6 UV-I 330 W/m 5,6 km/h
31.05.2012 14,3 C 90 % 1013,4 hPa 21,8 l/m 5,8 km/h NW 0,25 h 1,4 UV-I 133 W/m 16,1 km/h
01.06.2012 10,7 C 88 % 1015,6 hPa 3,4 l/m 0,6 km/h N-NW 0,67 h 1,8 UV-I 144 W/m 6,8 km/h
02.06.2012 9,9 C 78 % 1014,8 hPa 0,0 l/m 0,3 km/h NW 5,50 h 2,4 UV-I 287 W/m 4,0 km/h
03.06.2012 7,7 C 96 % 1008,1 hPa 9,8 l/m 0,1 km/h N-NO 0,00 h 0,7 UV-I 67 W/m 2,0 km/h
04.06.2012 8,4 C 95 % 1009,1 hPa 14,8 l/m 7,6 km/h N 0,83 h 1,5 UV-I 148 W/m 16,5 km/h
05.06.2012 8,4 C 85 % 1016,7 hPa 0,8 l/m 1,3 km/h NW 3,83 h 2,2 UV-I 250 W/m 7,2 km/h
06.06.2012 11,3 C 92 % 1007,2 hPa 2,8 l/m 2,3 km/h S-SO 0,75 h 1,2 UV-I 138 W/m 9,6 km/h
07.06.2012 16,4 C 85 % 1003,1 hPa 0,6 l/m 4,6 km/h S-SO 5,42 h 3,2 UV-I 331 W/m 15,3 km/h
08.06.2012 15,0 C 79 % 1006,3 hPa 0,8 l/m 2,6 km/h S-SW 5,83 h 3,0 UV-I 347 W/m 8,9 km/h
09.06.2012 12,9 C 69 % 1012,0 hPa 0,0 l/m 5,5 km/h S-SW 5,58 h 2,6 UV-I 321 W/m 16,1 km/h
10.06.2012 13,3 C 73 % 1009,2 hPa 0,0 l/m 2,3 km/h S-SW 10,08 h 3,1 UV-I 412 W/m 6,9 km/h
11.06.2012 15,1 C 78 % 1002,5 hPa 0,0 l/m 2,0 km/h S-SO 7,17 h 3,0 UV-I 346 W/m 7,7 km/h
12.06.2012 13,6 C 88 % 1003,6 hPa 0,4 l/m 1,4 km/h N-NW 1,17 h 2,0 UV-I 192 W/m 4,8 km/h
13.06.2012 11,5 C 83 % 1014,1 hPa 0,0 l/m 0,6 km/h N-NW 1,50 h 1,5 UV-I 177 W/m 6,0 km/h
14.06.2012 10,6 C 89 % 1018,8 hPa 0,4 l/m 0,1 km/h S 1,75 h 1,6 UV-I 169 W/m 1,2 km/h
15.06.2012 14,0 C 92 % 1015,0 hPa 1,8 l/m 6,1 km/h S-SO 2,25 h 1,6 UV-I 180 W/m 10,1 km/h
16.06.2012 13,9 C 91 % 1014,4 hPa 4,4 l/m 9,6 km/h S 0,58 h 1,4 UV-I 111 W/m 16,1 km/h
17.06.2012 15,3 C 78 % 1020,0 hPa 0,0 l/m 2,7 km/h S-SW 8,25 h 3,3 UV-I 371 W/m 8,1 km/h
18.06.2012 18,1 C 74 % 1015,4 hPa 0,0 l/m 5,5 km/h S-SO 7,33 h 3,3 UV-I 376 W/m 16,5 km/h
19.06.2012 16,7 C 85 % 1018,1 hPa 0,0 l/m 0,4 km/h N-NO 2,67 h 2,2 UV-I 229 W/m 2,8 km/h
20.06.2012 15,3 C 97 % 1013,8 hPa 7,4 l/m 0,8 km/h N-NO 0,00 h 1,1 UV-I 76 W/m 4,4 km/h
21.06.2012 15,3 C 95 % 1010,6 hPa 0,2 l/m 6,3 km/h S-SO 0,08 h 1,8 UV-I 131 W/m 12,5 km/h
22.06.2012 15,2 C 74 % 1017,1 hPa 1,8 l/m 2,0 km/h S-SW 5,33 h 2,8 UV-I 322 W/m 8,0 km/h
23.06.2012 15,4 C 71 % 1021,3 hPa 0,2 l/m 4,4 km/h S-SW 5,67 h 2,5 UV-I 295 W/m 11,7 km/h
24.06.2012 13,9 C 85 % 1010,7 hPa 9,4 l/m 6,9 km/h S 2,83 h 1,8 UV-I 169 W/m 21,3 km/h
25.06.2012 13,6 C 84 % 1014,0 hPa 1,6 l/m 4,2 km/h NW 2,83 h 2,6 UV-I 245 W/m 22,9 km/h
26.06.2012 13,4 C 82 % 1020,4 hPa 0,0 l/m 1,9 km/h NW 4,67 h 2,3 UV-I 247 W/m 10,4 km/h
27.06.2012 15,9 C 96 % 1016,5 hPa 10,2 l/m 0,9 km/h S-SW 1,33 h 1,7 UV-I 138 W/m 5,6 km/h
28.06.2012 21,5 C 79 % 1009,6 hPa 0,0 l/m 4,3 km/h S-SO 8,75 h 4,1 UV-I 407 W/m 6,4 km/h
29.06.2012 20,5 C 88 % 1008,3 hPa 4,0 l/m 2,6 km/h S 5,75 h 3,0 UV-I 273 W/m 9,3 km/h
30.06.2012 18,9 C 82 % 1011,6 hPa 0,0 l/m 1,4 km/h S 7,42 h 3,5 UV-I 363 W/m 5,6 km/h
01.07.2012 15,5 C 82 % 1016,0 hPa 0,6 l/m 0,3 km/h W-NW 2,67 h 2,4 UV-I 230 W/m 3,6 km/h
02.07.2012 13,8 C 89 % 1019,5 hPa 0,4 l/m 1,6 km/h SO 2,58 h 1,9 UV-I 195 W/m 4,8 km/h
03.07.2012 17,1 C 84 % 1017,0 hPa 0,0 l/m 0,3 km/h W-NW 5,25 h 2,6 UV-I 295 W/m 2,8 km/h
04.07.2012 20,5 C 75 % 1013,2 hPa 0,0 l/m 0,1 km/h SO 8,42 h 2,8 UV-I 334 W/m 2,4 km/h
05.07.2012 20,4 C 87 % 1009,7 hPa 0,0 l/m 1,4 km/h SO 5,08 h 2,3 UV-I 273 W/m 6,9 km/h
06.07.2012 18,4 C 89 % 1010,4 hPa 0,4 l/m 2,5 km/h S 5,67 h 2,4 UV-I 272 W/m 5,2 km/h
07.07.2012 16,6 C 87 % 1011,8 hPa 3,2 l/m 0,0 km/h S-SO 6,92 h 2,5 UV-I 297 W/m 0,0 km/h
08.07.2012 16,8 C 85 % 1007,1 hPa 5,0 l/m 7,4 km/h S 2,33 h 1,9 UV-I 190 W/m 17,7 km/h
09.07.2012 16,5 C 78 % 1011,1 hPa 0,2 l/m 2,3 km/h S 3,00 h 2,3 UV-I 245 W/m 7,2 km/h
10.07.2012 15,8 C 88 % 1011,2 hPa 0,8 l/m 0,0 km/h S-SW 1,92 h 2,2 UV-I 219 W/m 0,0 km/h
11.07.2012 13,0 C 89 % 1011,0 hPa 2,8 l/m 2,1 km/h S 3,42 h 2,0 UV-I 213 W/m 7,6 km/h
12.07.2012 11,5 C 84 % 1012,7 hPa 3,2 l/m 1,1 km/h S 2,58 h 2,0 UV-I 221 W/m 7,6 km/h
13.07.2012 14,1 C 91 % 1004,1 hPa 10,8 l/m 0,6 km/h S-SW 0,92 h 1,7 UV-I 164 W/m 5,3 km/h
14.07.2012 12,4 C 96 % 1004,6 hPa 20,4 l/m 1,1 km/h S-SW 1,25 h 1,7 UV-I 151 W/m 6,4 km/h
15.07.2012 13,7 C 88 % 1013,8 hPa 4,2 l/m 0,6 km/h S-SW 3,92 h 2,6 UV-I 291 W/m 7,2 km/h
16.07.2012 12,8 C 90 % 1020,3 hPa 13,6 l/m 4,7 km/h S-SW 1,58 h 2,1 UV-I 192 W/m 14,5 km/h
17.07.2012 15,8 C 90 % 1018,9 hPa 22,4 l/m 4,4 km/h NW 2,00 h 2,5 UV-I 218 W/m 13,7 km/h
18.07.2012 17,5 C 81 % 1011,3 hPa 2,2 l/m 6,5 km/h S 2,83 h 3,1 UV-I 228 W/m 24,5 km/h
19.07.2012 14,9 C 86 % 1007,3 hPa 10,6 l/m 4,6 km/h S-SW 3,50 h 2,6 UV-I 264 W/m 19,7 km/h
20.07.2012 14,5 C 79 % 1014,5 hPa 0,0 l/m 0,6 km/h W 7,17 h 3,0 UV-I 363 W/m 6,8 km/h
21.07.2012 11,8 C 85 % 1021,7 hPa 0,0 l/m 0,4 km/h NW 2,00 h 1,8 UV-I 204 W/m 2,0 km/h
22.07.2012 12,3 C 83 % 1027,8 hPa 0,0 l/m 0,0 km/h W-NW 6,75 h 2,6 UV-I 308 W/m 0,0 km/h
23.07.2012 16,7 C 70 % 1025,5 hPa 0,0 l/m 0,3 km/h S-SO 12,58 h 3,8 UV-I 465 W/m 2,0 km/h
24.07.2012 21,1 C 61 % 1017,9 hPa 0,0 l/m 0,4 km/h SO 12,50 h 3,7 UV-I 470 W/m 2,8 km/h
25.07.2012 22,5 C 75 % 1014,0 hPa 0,0 l/m 0,8 km/h NW 12,58 h 3,5 UV-I 449 W/m 4,0 km/h
26.07.2012 21,4 C 78 % 1016,1 hPa 0,0 l/m 0,0 km/h N 10,42 h 3,0 UV-I 387 W/m 0,4 km/h
27.07.2012 21,6 C 82 % 1010,9 hPa 23,6 l/m 5,1 km/h S-SO 7,25 h 3,2 UV-I 376 W/m 15,7 km/h
28.07.2012 17,3 C 94 % 1007,7 hPa 0,4 l/m 1,3 km/h S 0,75 h 1,2 UV-I 110 W/m 4,4 km/h
29.07.2012 16,5 C 80 % 1011,9 hPa 0,2 l/m 0,4 km/h S-SW 5,50 h 3,0 UV-I 316 W/m 6,4 km/h
30.07.2012 13,3 C 80 % 1016,3 hPa 0,2 l/m 1,2 km/h S-SW 4,00 h 2,5 UV-I 281 W/m 4,8 km/h
31.07.2012 15,2 C 79 % 1017,8 hPa 0,0 l/m 0,5 km/h S-SW 3,25 h 2,5 UV-I 247 W/m 4,0 km/h
01.08.2012 20,4 C 69 % 1013,1 hPa 0,0 l/m 7,4 km/h SO 12,67 h 3,7 UV-I 463 W/m 16,1 km/h
02.08.2012 19,0 C 76 % 1012,2 hPa 0,0 l/m 0,3 km/h S 4,67 h 2,5 UV-I 272 W/m 5,6 km/h
03.08.2012 16,6 C 85 % 1015,1 hPa 0,6 l/m 1,8 km/h S-SW 7,00 h 2,6 UV-I 328 W/m 4,0 km/h
04.08.2012 17,3 C 85 % 1012,7 hPa 1,6 l/m 0,8 km/h S-SW 6,50 h 2,8 UV-I 338 W/m 4,4 km/h
05.08.2012 17,3 C 87 % 1008,8 hPa 0,2 l/m 0,0 km/h S 3,17 h 1,7 UV-I 198 W/m 0,0 km/h
06.08.2012 17,0 C 78 % 1010,9 hPa 10,2 l/m 1,3 km/h S-SW 3,42 h 2,3 UV-I 259 W/m 9,2 km/h
07.08.2012 15,2 C 80 % 1019,1 hPa 0,0 l/m 3,3 km/h S 3,08 h 2,6 UV-I 264 W/m 11,7 km/h
08.08.2012 16,0 C 82 % 1022,5 hPa 0,6 l/m 0,3 km/h W-NW 5,75 h 2,6 UV-I 318 W/m 2,4 km/h
09.08.2012 14,9 C 87 % 1024,0 hPa 0,0 l/m 0,0 km/h N-NW 2,83 h 2,1 UV-I 233 W/m 0,0 km/h
10.08.2012 13,4 C 85 % 1025,3 hPa 0,0 l/m 1,2 km/h N 3,92 h 2,1 UV-I 233 W/m 4,0 km/h
11.08.2012 12,8 C 87 % 1022,1 hPa 0,0 l/m 0,2 km/h O-SO 4,00 h 2,3 UV-I 252 W/m 1,2 km/h
12.08.2012 15,9 C 71 % 1016,7 hPa 0,0 l/m 1,4 km/h SO 10,67 h 3,0 UV-I 414 W/m 8,1 km/h
13.08.2012 18,4 C 62 % 1014,3 hPa 0,0 l/m 5,3 km/h SO 11,92 h 3,2 UV-I 436 W/m 18,1 km/h
14.08.2012 20,0 C 58 % 1013,9 hPa 0,0 l/m 2,7 km/h SO 10,25 h 3,0 UV-I 406 W/m 8,4 km/h
15.08.2012 21,5 C 56 % 1011,3 hPa 0,0 l/m 5,6 km/h SO 10,75 h 3,0 UV-I 397 W/m 22,1 km/h
16.08.2012 16,6 C 87 % 1017,8 hPa 11,6 l/m 0,5 km/h NW 6,25 h 2,8 UV-I 316 W/m 5,6 km/h
17.08.2012 19,9 C 70 % 1019,6 hPa 0,0 l/m 2,0 km/h S 7,83 h 3,0 UV-I 368 W/m 6,0 km/h
18.08.2012 22,0 C 68 % 1018,8 hPa 0,0 l/m 4,1 km/h S-SO 11,92 h 3,5 UV-I 416 W/m 8,9 km/h
19.08.2012 24,7 C 72 % 1016,0 hPa 0,0 l/m 5,3 km/h S 11,42 h 3,5 UV-I 414 W/m 7,3 km/h
20.08.2012 22,8 C 82 % 1017,4 hPa 0,2 l/m 1,5 km/h NW 6,83 h 2,7 UV-I 316 W/m 4,0 km/h
21.08.2012 19,8 C 91 % 1014,9 hPa 0,2 l/m 0,1 km/h SO 2,58 h 1,9 UV-I 211 W/m 2,4 km/h
22.08.2012 17,5 C 72 % 1015,5 hPa 0,2 l/m 1,5 km/h W-NW 7,92 h 2,7 UV-I 364 W/m 9,6 km/h
23.08.2012 14,6 C 77 % 1013,6 hPa 0,0 l/m 0,2 km/h S-SW 8,75 h 2,9 UV-I 379 W/m 2,8 km/h
24.08.2012 15,7 C 87 % 1006,5 hPa 4,0 l/m 0,6 km/h NW 4,33 h 2,3 UV-I 241 W/m 3,6 km/h
25.08.2012 17,5 C 76 % 1005,9 hPa 1,2 l/m 5,9 km/h S 3,17 h 2,2 UV-I 229 W/m 12,4 km/h
26.08.2012 14,6 C 91 % 1011,2 hPa 10,8 l/m 8,7 km/h S 0,67 h 1,0 UV-I 107 W/m 24,5 km/h
27.08.2012 15,7 C 77 % 1019,3 hPa 0,2 l/m 0,2 km/h NW 8,50 h 3,1 UV-I 379 W/m 2,0 km/h
28.08.2012 17,4 C 75 % 1016,0 hPa 0,0 l/m 3,2 km/h S 3,50 h 2,3 UV-I 231 W/m 7,6 km/h
29.08.2012 18,2 C 81 % 1015,7 hPa 0,0 l/m 0,5 km/h S-SO 6,50 h 2,5 UV-I 318 W/m 1,6 km/h
30.08.2012 15,6 C 89 % 1015,3 hPa 0,0 l/m 1,8 km/h NW 3,33 h 2,3 UV-I 221 W/m 5,2 km/h
31.08.2012 13,0 C 89 % 1018,4 hPa 1,2 l/m 1,1 km/h N-NW 3,17 h 2,0 UV-I 227 W/m 4,8 km/h
01.09.2012 12,6 C 83 % 1025,3 hPa 0,0 l/m 0,1 km/h N-NW 3,83 h 2,1 UV-I 263 W/m 1,2 km/h
02.09.2012 13,0 C 85 % 1024,6 hPa 0,2 l/m 2,1 km/h S 8,75 h 2,7 UV-I 349 W/m 4,8 km/h
03.09.2012 12,4 C 92 % 1024,0 hPa 0,0 l/m 0,0 km/h NW 5,33 h 1,9 UV-I 238 W/m 0,4 km/h
04.09.2012 15,0 C 85 % 1021,4 hPa 0,2 l/m 0,0 km/h NW 9,92 h 2,9 UV-I 369 W/m 0,0 km/h
05.09.2012 14,8 C 78 % 1021,7 hPa 0,0 l/m 4,0 km/h N-NW 3,17 h 2,3 UV-I 225 W/m 11,3 km/h
06.09.2012 11,2 C 84 % 1025,4 hPa 0,0 l/m 0,8 km/h NW 2,08 h 1,9 UV-I 211 W/m 3,2 km/h
07.09.2012 16,3 C 77 % 1022,5 hPa 0,0 l/m 0,7 km/h S 6,92 h 2,6 UV-I 300 W/m 6,1 km/h
08.09.2012 16,5 C 88 % 1019,9 hPa 0,0 l/m 0,3 km/h W-NW 6,67 h 2,8 UV-I 330 W/m 2,8 km/h
09.09.2012 19,4 C 73 % 1014,1 hPa 0,2 l/m 2,9 km/h S-SO 9,92 h 2,7 UV-I 360 W/m 7,7 km/h
10.09.2012 18,8 C 71 % 1013,0 hPa 0,0 l/m 2,7 km/h S 9,17 h 2,3 UV-I 331 W/m 6,0 km/h
11.09.2012 16,1 C 87 % 1010,6 hPa 15,4 l/m 3,1 km/h S 1,00 h 1,5 UV-I 137 W/m 7,3 km/h
12.09.2012 9,4 C 91 % 1012,3 hPa 0,6 l/m 0,0 km/h NW 2,33 h 1,4 UV-I 168 W/m 0,0 km/h
13.09.2012 10,7 C 87 % 1016,6 hPa 0,2 l/m 0,0 km/h W 6,08 h 2,1 UV-I 286 W/m 0,0 km/h
14.09.2012 11,5 C 90 % 1011,1 hPa 1,2 l/m 3,0 km/h S 2,67 h 1,4 UV-I 161 W/m 7,2 km/h
15.09.2012 12,5 C 89 % 1016,5 hPa 0,0 l/m 0,7 km/h W-NW 0,58 h 1,3 UV-I 137 W/m 5,2 km/h
16.09.2012 13,7 C 82 % 1014,2 hPa 0,0 l/m 0,1 km/h S 9,33 h 2,4 UV-I 352 W/m 1,6 km/h
17.09.2012 12,2 C 92 % 1013,4 hPa 0,0 l/m 0,3 km/h S-SW 1,00 h 1,3 UV-I 129 W/m 4,8 km/h
18.09.2012 13,4 C 82 % 1011,0 hPa 0,0 l/m 0,3 km/h S-SW 3,08 h 1,9 UV-I 196 W/m 2,0 km/h
19.09.2012 9,1 C 81 % 1018,2 hPa 0,2 l/m 0,9 km/h W-NW 5,75 h 1,9 UV-I 287 W/m 6,4 km/h
20.09.2012 8,0 C 84 % 1022,1 hPa 0,0 l/m 0,1 km/h S-SW 6,43 h 1,7 UV-I 250 W/m 2,0 km/h
21.09.2012 8,9 C 86 % 1014,5 hPa 0,0 l/m 1,9 km/h S-SO 2,58 h 1,4 UV-I 195 W/m 4,0 km/h
22.09.2012 8,7 C 85 % 1015,7 hPa 0,2 l/m 2,3 km/h N-NW 3,42 h 1,7 UV-I 228 W/m 8,0 km/h
23.09.2012 8,5 C 78 % 1013,6 hPa 0,8 l/m 0,9 km/h O-SO 1,08 h 1,5 UV-I 155 W/m 4,8 km/h
24.09.2012 12,7 C 82 % 997,8 hPa 1,0 l/m 13,2 km/h S-SO 1,08 h 1,2 UV-I 122 W/m 22,9 km/h
25.09.2012 12,0 C 87 % 999,7 hPa 0,8 l/m 6,1 km/h S 0,50 h 0,8 UV-I 95 W/m 23,7 km/h
26.09.2012 12,5 C 86 % 1001,2 hPa 0,4 l/m 9,2 km/h S-SO 0,08 h 1,1 UV-I 101 W/m 18,5 km/h
27.09.2012 11,4 C 89 % 1006,6 hPa 1,2 l/m 5,0 km/h S 0,75 h 1,1 UV-I 128 W/m 14,5 km/h
28.09.2012 11,4 C 85 % 1015,8 hPa 0,2 l/m 0,5 km/h S 2,83 h 1,3 UV-I 175 W/m 6,0 km/h
29.09.2012 10,0 C 88 % 1016,1 hPa 1,4 l/m 1,7 km/h S 1,08 h 1,2 UV-I 136 W/m 6,9 km/h
30.09.2012 7,4 C 86 % 1020,6 hPa 0,2 l/m 1,2 km/h S 9,00 h 1,9 UV-I 312 W/m 4,8 km/h
01.10.2012 8,1 C 82 % 1016,3 hPa 0,0 l/m 1,1 km/h S-SW 8,75 h 1,9 UV-I 313 W/m 3,6 km/h
02.10.2012 13,0 C 86 % 1014,8 hPa 0,0 l/m 0,6 km/h S 1,92 h 1,4 UV-I 157 W/m 4,0 km/h
03.10.2012 12,5 C 87 % 1010,2 hPa 5,6 l/m 9,2 km/h S 2,33 h 1,2 UV-I 161 W/m 22,1 km/h
04.10.2012 9,4 C 93 % 1009,0 hPa 22,4 l/m 3,8 km/h S 0,17 h 0,7 UV-I 54 W/m 10,0 km/h
05.10.2012 11,4 C 92 % 1009,3 hPa 9,0 l/m 9,4 km/h S 0,00 h 0,6 UV-I 46 W/m 21,7 km/h
06.10.2012 9,5 C 96 % 1011,2 hPa 6,8 l/m 5,4 km/h S 0,00 h 0,8 UV-I 63 W/m 12,5 km/h
07.10.2012 7,5 C 88 % 1019,3 hPa 0,0 l/m 0,9 km/h NW 2,08 h 1,3 UV-I 148 W/m 3,6 km/h
08.10.2012 5,6 C 85 % 1017,0 hPa 0,2 l/m 0,2 km/h S 6,17 h 1,6 UV-I 259 W/m 2,0 km/h
09.10.2012 5,6 C 88 % 1014,2 hPa 0,0 l/m 0,4 km/h N-NW 3,17 h 1,3 UV-I 190 W/m 2,4 km/h
10.10.2012 4,8 C 89 % 1015,8 hPa 0,2 l/m 0,5 km/h NW 2,42 h 1,4 UV-I 177 W/m 2,4 km/h
11.10.2012 6,6 C 83 % 1012,1 hPa 0,2 l/m 2,5 km/h SO 8,58 h 1,6 UV-I 281 W/m 13,3 km/h
12.10.2012 8,5 C 89 % 1007,7 hPa 6,8 l/m 4,9 km/h S-SO 0,00 h 0,6 UV-I 45 W/m 20,1 km/h
13.10.2012 8,4 C 85 % 1007,1 hPa 0,8 l/m 14,8 km/h S-SO 5,08 h 1,2 UV-I 194 W/m 22,1 km/h
14.10.2012 6,9 C 87 % 1000,0 hPa 2,8 l/m 5,8 km/h S 1,58 h 1,0 UV-I 141 W/m 11,7 km/h
15.10.2012 4,9 C 96 % 1005,6 hPa 6,0 l/m 0,9 km/h S-SW 2,00 h 0,8 UV-I 103 W/m 9,3 km/h
16.10.2012 5,7 C 93 % 1008,7 hPa 1,4 l/m 8,2 km/h S 3,58 h 1,1 UV-I 131 W/m 16,9 km/h
17.10.2012 10,5 C 88 % 1010,0 hPa 0,2 l/m 15,4 km/h S-SO 0,58 h 0,8 UV-I 86 W/m 25,4 km/h
18.10.2012 14,6 C 77 % 1010,9 hPa 0,0 l/m 10,4 km/h S-SO 6,67 h 1,4 UV-I 213 W/m 18,5 km/h
19.10.2012 14,7 C 79 % 1013,2 hPa 0,0 l/m 7,1 km/h S-SO 7,42 h 1,2 UV-I 213 W/m 14,4 km/h
20.10.2012 14,6 C 87 % 1017,2 hPa 0,0 l/m 0,0 km/h S 8,08 h 1,3 UV-I 208 W/m 0,4 km/h
21.10.2012 16,5 C 81 % 1017,3 hPa 0,0 l/m 1,3 km/h S-SO 6,58 h 1,4 UV-I 221 W/m 6,4 km/h
22.10.2012 13,6 C 85 % 1021,9 hPa 0,0 l/m 1,7 km/h SO 7,33 h 1,3 UV-I 221 W/m 8,9 km/h
23.10.2012 9,9 C 93 % 1024,0 hPa 0,0 l/m 4,6 km/h S-SO 1,25 h 1,1 UV-I 134 W/m 14,5 km/h
24.10.2012 7,9 C 97 % 1020,0 hPa 0,0 l/m 0,1 km/h S-SO 0,00 h 0,6 UV-I 49 W/m 0,8 km/h
25.10.2012 7,6 C 93 % 1014,0 hPa 0,2 l/m 4,6 km/h N-NW 0,25 h 0,6 UV-I 47 W/m 14,5 km/h
26.10.2012 2,7 C 76 % 1008,5 hPa 0,2 l/m 1,4 km/h O-SO 4,67 h 1,0 UV-I 144 W/m 7,2 km/h
27.10.2012 0,4 C 79 % 1007,8 hPa 0,0 l/m 2,1 km/h N-NO 4,92 h 1,1 UV-I 208 W/m 7,3 km/h
28.10.2012 -1,3 C 89 % 1016,5 hPa 0,4 l/m 0,0 km/h N 3,67 h 1,0 UV-I 160 W/m 0,0 km/h
29.10.2012 1,3 C 88 % 1010,8 hPa 4,2 l/m 6,3 km/h S 2,08 h 0,8 UV-I 124 W/m 11,7 km/h
30.10.2012 4,7 C 96 % 1003,2 hPa 11,0 l/m 3,1 km/h S 1,75 h 0,8 UV-I 110 W/m 7,2 km/h
31.10.2012 5,6 C 86 % 998,7 hPa 0,2 l/m 14,0 km/h S-SO 6,08 h 0,9 UV-I 168 W/m 23,3 km/h
01.11.2012 6,0 C 84 % 987,6 hPa 0,2 l/m 10,4 km/h S-SO 1,83 h 0,9 UV-I 111 W/m 19,3 km/h
02.11.2012 6,1 C 84 % 996,8 hPa 2,4 l/m 10,2 km/h S 2,33 h 0,8 UV-I 136 W/m 22,1 km/h
03.11.2012 4,4 C 90 % 1000,5 hPa 1,8 l/m 3,5 km/h S 0,00 h 0,5 UV-I 38 W/m 7,2 km/h
04.11.2012 5,8 C 89 % 999,7 hPa 1,8 l/m 9,2 km/h S-SO 1,17 h 0,6 UV-I 73 W/m 16,9 km/h
05.11.2012 5,2 C 94 % 1002,7 hPa 2,0 l/m 4,2 km/h S-SW 0,00 h 0,6 UV-I 45 W/m 18,9 km/h
06.11.2012 5,1 C 92 % 1015,1 hPa 4,6 l/m 6,6 km/h W 0,83 h 0,6 UV-I 72 W/m 24,2 km/h
07.11.2012 7,6 C 95 % 1021,3 hPa 5,6 l/m 11,7 km/h W-SW 0,00 h 0,5 UV-I 28 W/m 26,1 km/h
08.11.2012 7,3 C 90 % 1016,8 hPa 0,0 l/m 2,3 km/h S-SW 0,00 h 0,6 UV-I 42 W/m 15,6 km/h
09.11.2012 6,7 C 87 % 1013,1 hPa 1,2 l/m 10,0 km/h S-SO 0,00 h 0,6 UV-I 57 W/m 16,5 km/h
10.11.2012 7,9 C 94 % 1001,9 hPa 6,2 l/m 9,0 km/h S-SO 0,00 h 0,5 UV-I 32 W/m 14,9 km/h
11.11.2012 5,8 C 94 % 1013,3 hPa 0,2 l/m 0,6 km/h S 0,00 h 0,6 UV-I 55 W/m 4,4 km/h
12.11.2012 3,8 C 91 % 1025,9 hPa 0,0 l/m 0,0 km/h S-SW 1,25 h 0,6 UV-I 88 W/m 0,0 km/h
13.11.2012 3,6 C 90 % 1031,6 hPa 0,2 l/m 0,9 km/h S 5,92 h 0,8 UV-I 168 W/m 2,8 km/h
14.11.2012 2,3 C 90 % 1028,2 hPa 0,0 l/m 1,8 km/h SO 6,00 h 0,8 UV-I 170 W/m 4,8 km/h
15.11.2012 0,4 C 97 % 1023,6 hPa 0,2 l/m 0,3 km/h S-SO 0,00 h 0,5 UV-I 47 W/m 1,2 km/h
16.11.2012 0,2 C 95 % 1018,3 hPa 0,0 l/m 4,9 km/h S-SO 0,00 h 0,5 UV-I 48 W/m 12,9 km/h
17.11.2012 1,6 C 93 % 1011,5 hPa 0,4 l/m 2,2 km/h S-SO 4,58 h 0,8 UV-I 146 W/m 6,8 km/h
18.11.2012 5,8 C 98 % 1014,3 hPa 2,0 l/m 0,0 km/h S 0,00 h 0,0 UV-I 28 W/m 0,4 km/h
19.11.2012 6,3 C 96 % 1017,6 hPa 0,0 l/m 9,2 km/h S-SO 1,75 h 0,7 UV-I 91 W/m 13,7 km/h
20.11.2012 3,3 C 95 % 1019,0 hPa 0,2 l/m 7,8 km/h S-SO 5,75 h 0,7 UV-I 152 W/m 15,3 km/h
21.11.2012 3,4 C 95 % 1015,8 hPa 0,0 l/m 8,4 km/h S-SO 0,67 h 0,7 UV-I 80 W/m 14,1 km/h
22.11.2012 5,8 C 88 % 1021,6 hPa 0,0 l/m 6,6 km/h S 5,33 h 0,7 UV-I 146 W/m 16,1 km/h
23.11.2012 5,8 C 95 % 1017,4 hPa 6,6 l/m 6,4 km/h S-SO 0,58 h 0,5 UV-I 58 W/m 11,3 km/h
24.11.2012 6,5 C 98 % 1016,6 hPa 1,6 l/m 5,6 km/h SO 0,00 h 0,5 UV-I 39 W/m 17,7 km/h
25.11.2012 7,5 C 80 % 1010,0 hPa 0,4 l/m 14,4 km/h S 1,08 h 0,6 UV-I 64 W/m 29,8 km/h
26.11.2012 5,3 C 96 % 1005,5 hPa 6,0 l/m 5,6 km/h S 0,17 h 0,5 UV-I 37 W/m 11,7 km/h
27.11.2012 5,4 C 93 % 1005,1 hPa 2,4 l/m 0,0 km/h S 0,00 h 0,5 UV-I 63 W/m 0,0 km/h
28.11.2012 3,7 C 96 % 1004,1 hPa 0,0 l/m 1,1 km/h N 0,33 h 0,6 UV-I 56 W/m 4,0 km/h
29.11.2012 1,2 C 95 % 1002,2 hPa 1,2 l/m 7,4 km/h N-NW 0,00 h 0,0 UV-I 24 W/m 18,9 km/h
30.11.2012 -1,1 C 94 % 1009,8 hPa 0,0 l/m 0,0 km/h W-NW 1,58 h 0,5 UV-I 80 W/m 0,0 km/h
01.12.2012 0,4 C 96 % 1010,7 hPa 0,6 l/m 7,0 km/h S-SO 0,00 h 0,0 UV-I 18 W/m 13,6 km/h
02.12.2012 0,3 C 97 % 1010,1 hPa 5,0 l/m 4,5 km/h S 0,00 h 0,0 UV-I 17 W/m 11,3 km/h
03.12.2012 -0,4 C 95 % 1006,5 hPa 4,2 l/m 2,7 km/h S-SO 0,75 h 0,5 UV-I 69 W/m 6,0 km/h
04.12.2012 1,9 C 94 % 996,2 hPa 3,6 l/m 4,9 km/h S-SW 0,08 h 0,5 UV-I 37 W/m 11,7 km/h
05.12.2012 -0,6 C 93 % 1001,9 hPa 0,0 l/m 1,9 km/h S-SW 1,83 h 0,5 UV-I 86 W/m 8,9 km/h
06.12.2012 -3,9 C 91 % 1013,2 hPa 0,4 l/m 3,6 km/h N-NW 0,50 h 0,5 UV-I 55 W/m 13,7 km/h
07.12.2012 -3,4 C 85 % 1007,5 hPa 0,0 l/m 9,0 km/h S-SO 1,42 h 0,6 UV-I 86 W/m 16,1 km/h
08.12.2012 -4,9 C 88 % 1022,3 hPa 0,0 l/m 0,3 km/h S 2,25 h 0,6 UV-I 93 W/m 2,8 km/h
09.12.2012 0,8 C 98 % 1007,9 hPa 26,4 l/m 14,1 km/h S-SW 0,00 h 0,0 UV-I 7 W/m 24,5 km/h
10.12.2012 -0,7 C 97 % 1010,6 hPa 6,0 l/m 12,6 km/h N-NW 0,00 h 0,5 UV-I 29 W/m 26,1 km/h
11.12.2012 -3,2 C 93 % 1023,4 hPa 0,2 l/m 2,5 km/h N-NW 0,42 h 0,0 UV-I 47 W/m 4,0 km/h
12.12.2012 -1,6 C 95 % 1018,8 hPa 5,6 l/m 0,5 km/h W 0,00 h 0,0 UV-I 13 W/m 7,3 km/h
13.12.2012 -4,0 C 90 % 1010,4 hPa 0,0 l/m 1,3 km/h S-SO 0,00 h 0,0 UV-I 19 W/m 4,4 km/h
14.12.2012 1,2 C 95 % 999,4 hPa 5,2 l/m 18,9 km/h S-SO 0,00 h 0,5 UV-I 66 W/m 28,9 km/h
15.12.2012 3,8 C 94 % 1001,6 hPa 0,2 l/m 2,9 km/h S 1,08 h 0,6 UV-I 67 W/m 6,0 km/h
16.12.2012 3,1 C 97 % 1004,4 hPa 2,6 l/m 0,0 km/h S 0,00 h 0,5 UV-I 30 W/m 0,0 km/h
17.12.2012 3,6 C 98 % 1004,9 hPa 3,8 l/m 0,1 km/h S 0,00 h 0,5 UV-I 41 W/m 1,6 km/h
18.12.2012 3,1 C 97 % 1014,9 hPa 6,4 l/m 0,0 km/h W 0,25 h 0,5 UV-I 43 W/m 0,0 km/h
19.12.2012 2,0 C 98 % 1023,4 hPa 0,0 l/m 0,2 km/h SO 0,17 h 0,5 UV-I 51 W/m 1,2 km/h
20.12.2012 1,2 C 92 % 1015,0 hPa 0,0 l/m 8,1 km/h SO 0,92 h 0,6 UV-I 77 W/m 20,1 km/h
21.12.2012 0,0 C 97 % 1013,0 hPa 3,8 l/m 1,4 km/h SO 0,00 h 0,0 UV-I 41 W/m 7,6 km/h
22.12.2012 4,3 C 97 % 1012,0 hPa 7,8 l/m 11,0 km/h S-SO 0,00 h 0,5 UV-I 38 W/m 20,9 km/h
23.12.2012 8,1 C 98 % 1005,6 hPa 41,4 l/m 4,2 km/h S-SW 0,00 h 0,0 UV-I 13 W/m 21,0 km/h
24.12.2012 8,4 C 90 % 1003,7 hPa 7,2 l/m 10,0 km/h S 0,00 h 0,0 UV-I 22 W/m 16,9 km/h
25.12.2012 7,5 C 88 % 999,5 hPa 4,2 l/m 14,2 km/h S 0,42 h 0,0 UV-I 25 W/m 25,7 km/h
26.12.2012 5,5 C 92 % 1006,6 hPa 2,4 l/m 7,5 km/h S-SW 0,00 h 0,5 UV-I 36 W/m 17,7 km/h
27.12.2012 5,7 C 92 % 1004,8 hPa 10,8 l/m 3,5 km/h S-SW 1,58 h 0,6 UV-I 73 W/m 10,1 km/h
28.12.2012 2,0 C 93 % 1023,4 hPa 0,6 l/m 11,1 km/h S-SO 3,83 h 0,6 UV-I 106 W/m 18,1 km/h
29.12.2012 7,2 C 90 % 1012,8 hPa 0,8 l/m 20,1 km/h S-SO 1,08 h 0,6 UV-I 78 W/m 28,2 km/h
30.12.2012 5,5 C 85 % 1013,5 hPa 2,2 l/m 18,6 km/h S-SW 1,08 h 0,5 UV-I 64 W/m 31,8 km/h
31.12.2012 6,9 C 84 % 1009,5 hPa 0,0 l/m 21,4 km/h S 0,08 h 0,5 UV-I 59 W/m 36,6 km/h
Min-Datum 07.02.12 28.04.12 05.01.12 221 Tage 01.01.12 - - - - 01.01.12
Min-Zeit 04:00 15:40 12:30 - 13:40 - - - - 13:40
Minimum -17,5 C 33 % 983,4 hPa - 0,0 km/h - - - - 0,0 km/h
Max-Datum 19.08.12 07.01.12 07.02.12 23.12.12 03.01.12 - 26.05.12 01.07.12 02.06.12 20.01.12
Max-Zeit 15:30 13:00 21:25 01:30 19:25 - 19:50 13:40 12:45 02:30
Maximum 32,6 C 100 % 1041,2 hPa 41,4 l/m 44,5 km/h
S
- 12,83 h 8,9 UV-I 1339 W/m 77,2 km/h
W
Durchschnitt 8,6 C 85 % 1015,4 hPa #860,6 l/m 4,0 km/h S #1330:20 h 1,6 UV-I 190 W/m 10,7 km/h

Durchschnitt Minimum Temp.4,7 C
Durchschnitt Maximum Temp.12,7 C